createdAt,value
2018-12-27T00:00:12.567Z,-3.80
2018-12-27T00:02:40.994Z,-3.90
2018-12-27T00:05:09.436Z,-3.90
2018-12-27T00:07:37.874Z,-3.90
2018-12-27T00:10:06.575Z,-4.00
2018-12-27T00:12:35.046Z,-4.00
2018-12-27T00:15:04.225Z,-4.00
2018-12-27T00:17:32.661Z,-4.00
2018-12-27T00:20:01.117Z,-4.20
2018-12-27T00:22:29.538Z,-4.30
2018-12-27T00:24:57.999Z,-4.20
2018-12-27T00:27:26.426Z,-4.10
2018-12-27T00:29:54.935Z,-4.10
2018-12-27T00:32:23.518Z,-4.10
2018-12-27T00:34:52.127Z,-4.10
2018-12-27T00:37:20.706Z,-4.20
2018-12-27T00:39:49.290Z,-4.20
2018-12-27T00:42:17.886Z,-4.30
2018-12-27T00:44:46.470Z,-4.20
2018-12-27T00:47:15.154Z,-4.10
2018-12-27T00:49:43.853Z,-4.10
2018-12-27T00:52:12.459Z,-4.10
2018-12-27T00:54:41.056Z,-4.10
2018-12-27T00:57:11.105Z,-4.20
2018-12-27T00:59:39.727Z,-4.10
2018-12-27T01:02:08.365Z,-4.10
2018-12-27T01:04:36.952Z,-4.10
2018-12-27T01:07:05.582Z,-4.00
2018-12-27T01:09:34.176Z,-4.00
2018-12-27T01:12:02.783Z,-4.10
2018-12-27T01:14:31.375Z,-4.10
2018-12-27T01:17:00.001Z,-4.20
2018-12-27T01:19:28.587Z,-4.30
2018-12-27T01:21:57.166Z,-4.30
2018-12-27T01:24:25.771Z,-4.30
2018-12-27T01:26:54.343Z,-4.20
2018-12-27T01:29:22.961Z,-4.20
2018-12-27T01:31:51.535Z,-4.30
2018-12-27T01:34:20.146Z,-4.40
2018-12-27T01:36:48.792Z,-4.30
2018-12-27T01:39:17.402Z,-4.40
2018-12-27T01:41:45.987Z,-4.40
2018-12-27T01:44:14.590Z,-4.40
2018-12-27T01:46:43.166Z,-4.40
2018-12-27T01:49:11.771Z,-4.40
2018-12-27T01:51:40.387Z,-4.40
2018-12-27T01:54:08.979Z,-4.50
2018-12-27T01:56:37.586Z,-4.40
2018-12-27T01:59:06.190Z,-4.40
2018-12-27T02:01:34.780Z,-4.50
2018-12-27T02:04:03.358Z,-4.50
2018-12-27T02:06:31.967Z,-4.50
2018-12-27T02:09:00.583Z,-4.50
2018-12-27T02:11:29.190Z,-4.50
2018-12-27T02:13:57.780Z,-4.50
2018-12-27T02:16:26.430Z,-4.50
2018-12-27T02:18:55.024Z,-4.50
2018-12-27T02:21:23.729Z,-4.50
2018-12-27T02:23:52.302Z,-4.60
2018-12-27T02:26:20.910Z,-4.60
2018-12-27T02:28:49.659Z,-4.60
2018-12-27T02:31:18.259Z,-4.70
2018-12-27T02:33:46.839Z,-4.70
2018-12-27T02:36:15.443Z,-4.70
2018-12-27T02:38:44.047Z,-4.70
2018-12-27T02:41:12.647Z,-4.80
2018-12-27T02:43:41.227Z,-4.80
2018-12-27T02:46:09.844Z,-4.80
2018-12-27T02:48:38.425Z,-4.80
2018-12-27T02:51:07.016Z,-4.80
2018-12-27T02:53:35.621Z,-4.90
2018-12-27T02:56:04.209Z,-5.00
2018-12-27T02:58:32.822Z,-5.00
2018-12-27T03:01:01.399Z,-5.00
2018-12-27T03:03:30.012Z,-5.00
2018-12-27T03:05:58.590Z,-5.00
2018-12-27T03:08:27.190Z,-5.00
2018-12-27T03:10:55.762Z,-5.00
2018-12-27T03:13:24.399Z,-5.00
2018-12-27T03:15:53.023Z,-5.10
2018-12-27T03:18:21.635Z,-5.10
2018-12-27T03:20:50.297Z,-5.10
2018-12-27T03:23:18.906Z,-5.10
2018-12-27T03:25:47.501Z,-5.20
2018-12-27T03:28:16.101Z,-5.20
2018-12-27T03:30:44.729Z,-5.20
2018-12-27T03:33:13.304Z,-5.20
2018-12-27T03:35:41.909Z,-5.20
2018-12-27T03:38:11.951Z,-5.20
2018-12-27T03:40:40.548Z,-5.20
2018-12-27T03:43:09.135Z,-5.20
2018-12-27T03:45:37.734Z,-5.30
2018-12-27T03:48:06.318Z,-5.30
2018-12-27T03:50:34.917Z,-5.40
2018-12-27T03:53:03.502Z,-5.40
2018-12-27T03:55:32.098Z,-5.40
2018-12-27T03:58:00.757Z,-5.40
2018-12-27T04:00:29.386Z,-5.40
2018-12-27T04:02:57.973Z,-5.50
2018-12-27T04:05:26.592Z,-5.50
2018-12-27T04:07:55.159Z,-5.50
2018-12-27T04:10:23.775Z,-5.50
2018-12-27T04:12:52.348Z,-5.50
2018-12-27T04:15:20.784Z,-5.60
2018-12-27T04:17:49.220Z,-5.60
2018-12-27T04:20:19.327Z,-5.60
2018-12-27T04:22:47.755Z,-5.70
2018-12-27T04:25:16.253Z,-5.70
2018-12-27T04:27:44.703Z,-5.60
2018-12-27T04:30:13.459Z,-5.70
2018-12-27T04:32:43.330Z,-5.70
2018-12-27T04:35:12.332Z,-5.70
2018-12-27T04:37:40.791Z,-5.70
2018-12-27T04:40:09.231Z,-5.70
2018-12-27T04:42:38.411Z,-5.70
2018-12-27T04:45:06.899Z,-5.70
2018-12-27T04:47:35.352Z,-5.80
2018-12-27T04:50:05.324Z,-5.80
2018-12-27T04:52:33.776Z,-5.80
2018-12-27T04:55:02.202Z,-5.90
2018-12-27T04:57:30.662Z,-5.80
2018-12-27T04:59:59.076Z,-5.90
2018-12-27T05:02:27.526Z,-5.90
2018-12-27T05:04:55.990Z,-5.90
2018-12-27T05:07:24.439Z,-5.90
2018-12-27T05:09:52.858Z,-5.90
2018-12-27T05:12:21.311Z,-5.90
2018-12-27T05:14:49.735Z,-5.90
2018-12-27T05:17:18.261Z,-5.90
2018-12-27T05:19:46.722Z,-6.00
2018-12-27T05:22:15.156Z,-6.00
2018-12-27T05:24:43.595Z,-6.00
2018-12-27T05:27:12.019Z,-6.00
2018-12-27T05:29:40.466Z,-6.00
2018-12-27T05:32:08.897Z,-6.10
2018-12-27T05:34:37.335Z,-6.10
2018-12-27T05:37:05.757Z,-6.10
2018-12-27T05:39:34.209Z,-6.10
2018-12-27T05:42:02.698Z,-6.10
2018-12-27T05:44:31.206Z,-6.20
2018-12-27T05:46:59.650Z,-6.20
2018-12-27T05:49:28.114Z,-6.20
2018-12-27T05:51:56.553Z,-6.20
2018-12-27T05:54:24.974Z,-6.20
2018-12-27T05:56:53.438Z,-6.20
2018-12-27T05:59:21.860Z,-6.20
2018-12-27T06:01:50.339Z,-6.30
2018-12-27T06:04:18.754Z,-6.30
2018-12-27T06:06:47.203Z,-6.30
2018-12-27T06:09:15.687Z,-6.30
2018-12-27T06:11:44.226Z,-6.30
2018-12-27T06:14:12.677Z,-6.30
2018-12-27T06:16:41.147Z,-6.30
2018-12-27T06:19:09.633Z,-6.30
2018-12-27T06:21:38.084Z,-6.30
2018-12-27T06:24:06.519Z,-6.30
2018-12-27T06:26:34.957Z,-6.30
2018-12-27T06:29:03.431Z,-6.30
2018-12-27T06:31:31.880Z,-6.30
2018-12-27T06:34:00.307Z,-6.30
2018-12-27T06:36:28.733Z,-6.30
2018-12-27T06:38:57.168Z,-6.30
2018-12-27T06:41:25.626Z,-6.30
2018-12-27T06:43:54.061Z,-6.30
2018-12-27T06:46:22.518Z,-6.30
2018-12-27T06:48:50.953Z,-6.30
2018-12-27T06:51:19.379Z,-6.20
2018-12-27T06:53:47.848Z,-6.30
2018-12-27T06:56:16.282Z,-6.30
2018-12-27T06:58:44.796Z,-6.30
2018-12-27T07:01:13.219Z,-6.30
2018-12-27T07:03:41.676Z,-6.30
2018-12-27T07:06:10.102Z,-6.30
2018-12-27T07:08:38.570Z,-6.30
2018-12-27T07:11:06.986Z,-6.20
2018-12-27T07:13:35.421Z,-6.20
2018-12-27T07:16:03.860Z,-6.20
2018-12-27T07:18:32.321Z,-6.20
2018-12-27T07:21:00.778Z,-6.10
2018-12-27T07:23:29.240Z,-6.10
2018-12-27T07:25:57.666Z,-6.10
2018-12-27T07:28:26.086Z,-6.00
2018-12-27T07:30:54.540Z,-6.00
2018-12-27T07:33:22.966Z,-5.90
2018-12-27T07:35:51.422Z,-5.90
2018-12-27T07:38:19.849Z,-5.90
2018-12-27T07:40:48.318Z,-5.80
2018-12-27T07:43:16.734Z,-5.70
2018-12-27T07:45:45.179Z,-5.60
2018-12-27T07:48:13.609Z,-5.60
2018-12-27T07:50:42.138Z,-5.50
2018-12-27T07:53:10.638Z,-5.50
2018-12-27T07:55:39.099Z,-5.50
2018-12-27T07:58:07.527Z,-5.50
2018-12-27T08:00:36.067Z,-5.40
2018-12-27T08:03:04.483Z,-5.40
2018-12-27T08:05:32.934Z,-5.30
2018-12-27T08:08:01.367Z,-5.30
2018-12-27T08:10:29.815Z,-5.10
2018-12-27T08:12:58.248Z,-5.10
2018-12-27T08:15:26.762Z,-5.10
2018-12-27T08:17:55.224Z,-5.00
2018-12-27T08:20:23.647Z,-5.00
2018-12-27T08:22:52.093Z,-4.90
2018-12-27T08:25:20.579Z,-4.80
2018-12-27T08:27:49.022Z,-4.80
2018-12-27T08:30:17.655Z,-4.70
2018-12-27T08:32:46.106Z,-4.60
2018-12-27T08:35:14.544Z,-4.60
2018-12-27T08:37:42.988Z,-4.60
2018-12-27T08:40:11.423Z,-4.50
2018-12-27T08:42:39.886Z,-4.50
2018-12-27T08:45:08.320Z,-4.40
2018-12-27T08:47:36.765Z,-4.40
2018-12-27T08:50:07.224Z,-4.30
2018-12-27T08:52:35.672Z,-4.30
2018-12-27T08:55:04.538Z,-4.30
2018-12-27T08:57:33.005Z,-4.30
2018-12-27T09:00:01.426Z,-4.30
2018-12-27T09:02:29.848Z,-4.20
2018-12-27T09:04:58.304Z,-4.00
2018-12-27T09:07:26.800Z,-4.10
2018-12-27T09:09:55.246Z,-4.10
2018-12-27T09:12:23.671Z,-4.00
2018-12-27T09:14:52.137Z,-3.80
2018-12-27T09:17:20.614Z,-3.90
2018-12-27T09:19:49.074Z,-3.70
2018-12-27T09:22:17.511Z,-3.70
2018-12-27T09:24:45.976Z,-3.70
2018-12-27T09:27:14.402Z,-3.70
2018-12-27T09:29:44.503Z,-3.60
2018-12-27T09:32:12.946Z,-3.40
2018-12-27T09:34:41.399Z,-3.30
2018-12-27T09:37:09.817Z,-3.20
2018-12-27T09:39:38.263Z,-3.10
2018-12-27T09:42:06.694Z,-3.00
2018-12-27T09:44:35.142Z,-3.00
2018-12-27T09:47:03.568Z,-2.90
2018-12-27T09:49:32.024Z,-3.00
2018-12-27T09:52:02.209Z,-3.00
2018-12-27T09:54:30.624Z,-2.90
2018-12-27T09:56:59.091Z,-2.90
2018-12-27T09:59:27.530Z,-2.70
2018-12-27T10:01:56.832Z,-2.70
2018-12-27T10:04:25.278Z,-2.50
2018-12-27T10:06:53.731Z,-2.50
2018-12-27T10:09:22.160Z,-2.50
2018-12-27T10:11:50.676Z,-2.60
2018-12-27T10:14:19.147Z,-2.50
2018-12-27T10:16:47.589Z,-2.30
2018-12-27T10:19:16.029Z,-2.20
2018-12-27T10:21:44.498Z,-2.20
2018-12-27T10:24:12.910Z,-2.30
2018-12-27T10:26:41.380Z,-2.30
2018-12-27T10:29:09.821Z,-2.30
2018-12-27T10:31:38.271Z,-2.20
2018-12-27T10:34:06.703Z,-2.10
2018-12-27T10:36:36.773Z,-1.90
2018-12-27T10:39:06.635Z,-1.80
2018-12-27T10:41:35.093Z,-1.80
2018-12-27T10:44:03.521Z,-1.70
2018-12-27T10:46:31.990Z,-1.70
2018-12-27T10:49:00.653Z,-1.70
2018-12-27T10:51:29.089Z,-1.60
2018-12-27T10:53:57.541Z,-1.60
2018-12-27T10:56:25.977Z,-1.60
2018-12-27T10:58:54.431Z,-1.40
2018-12-27T11:01:22.850Z,-1.50
2018-12-27T11:03:51.328Z,-1.40
2018-12-27T11:06:19.757Z,-1.50
2018-12-27T11:08:48.220Z,-1.60
2018-12-27T11:11:16.638Z,-1.40
2018-12-27T11:13:45.107Z,-1.50
2018-12-27T11:16:13.546Z,-1.40
2018-12-27T11:18:41.987Z,-1.20
2018-12-27T11:21:10.416Z,-1.10
2018-12-27T11:23:38.876Z,-1.20
2018-12-27T11:26:08.839Z,-1.20
2018-12-27T11:28:38.862Z,-1.10
2018-12-27T11:31:07.379Z,-0.90
2018-12-27T11:33:35.821Z,-0.90
2018-12-27T11:36:04.342Z,-0.90
2018-12-27T11:38:32.780Z,-0.80
2018-12-27T11:41:01.236Z,-0.80
2018-12-27T11:43:29.751Z,-0.90
2018-12-27T11:45:58.202Z,-0.90
2018-12-27T11:48:26.636Z,-0.80
2018-12-27T11:50:55.183Z,-0.80
2018-12-27T11:53:23.608Z,-0.70
2018-12-27T11:55:52.051Z,-0.60
2018-12-27T11:58:20.486Z,-0.50
2018-12-27T12:00:48.943Z,-0.40
2018-12-27T12:03:17.382Z,-0.40
2018-12-27T12:05:45.841Z,-0.30
2018-12-27T12:08:14.271Z,-0.30
2018-12-27T12:10:42.709Z,-0.30
2018-12-27T12:13:11.155Z,-0.20
2018-12-27T12:15:39.627Z,-0.10
2018-12-27T12:18:08.047Z,-0.20
2018-12-27T12:20:36.627Z,-0.20
2018-12-27T12:23:05.059Z,-0.20
2018-12-27T12:25:33.498Z,-0.10
2018-12-27T12:28:02.010Z,-0.10
2018-12-27T12:30:30.604Z,0.00
2018-12-27T12:32:59.037Z,0.00
2018-12-27T12:35:27.518Z,0.10
2018-12-27T12:37:56.420Z,0.10
2018-12-27T12:40:24.925Z,0.20
2018-12-27T12:42:53.365Z,0.30
2018-12-27T12:45:21.790Z,0.30
2018-12-27T12:47:50.232Z,0.40
2018-12-27T12:50:18.662Z,0.40
2018-12-27T12:52:47.115Z,0.50
2018-12-27T12:55:15.546Z,0.50
2018-12-27T12:57:43.993Z,0.50
2018-12-27T13:00:14.038Z,0.60
2018-12-27T13:02:42.473Z,0.50
2018-12-27T13:05:10.899Z,0.60
2018-12-27T13:07:39.350Z,0.70
2018-12-27T13:10:07.807Z,0.80
2018-12-27T13:12:36.255Z,1.00
2018-12-27T13:15:05.426Z,0.90
2018-12-27T13:17:33.862Z,1.00
2018-12-27T13:20:02.325Z,1.10
2018-12-27T13:22:30.839Z,1.20
2018-12-27T13:24:59.262Z,1.30
2018-12-27T13:27:27.983Z,1.10
2018-12-27T13:29:56.407Z,1.00
2018-12-27T13:32:24.836Z,0.90
2018-12-27T13:34:53.289Z,0.90
2018-12-27T13:37:21.708Z,0.90
2018-12-27T13:39:50.163Z,0.90
2018-12-27T13:42:18.600Z,0.80
2018-12-27T13:44:47.053Z,0.70
2018-12-27T13:47:15.483Z,0.70
2018-12-27T13:49:43.935Z,0.60
2018-12-27T13:52:12.369Z,0.60
2018-12-27T13:54:40.831Z,0.60
2018-12-27T13:57:09.446Z,0.60
2018-12-27T13:59:37.903Z,0.60
2018-12-27T14:02:06.418Z,0.60
2018-12-27T14:04:34.901Z,0.60
2018-12-27T14:07:03.354Z,0.60
2018-12-27T14:09:31.771Z,0.60
2018-12-27T14:12:00.244Z,0.50
2018-12-27T14:14:28.667Z,0.50
2018-12-27T14:16:57.130Z,0.50
2018-12-27T14:19:25.571Z,0.60
2018-12-27T14:21:54.054Z,0.50
2018-12-27T14:24:22.474Z,0.40
2018-12-27T14:26:51.223Z,0.50
2018-12-27T14:29:19.640Z,0.50
2018-12-27T14:31:48.154Z,0.50
2018-12-27T14:34:16.583Z,0.40
2018-12-27T14:36:45.041Z,0.40
2018-12-27T14:39:13.452Z,0.40
2018-12-27T14:41:41.918Z,0.30
2018-12-27T14:44:10.350Z,0.30
2018-12-27T14:46:38.799Z,0.20
2018-12-27T14:49:07.219Z,0.20
2018-12-27T14:51:35.678Z,0.10
2018-12-27T14:54:04.166Z,0.10
2018-12-27T14:56:32.646Z,0.00
2018-12-27T14:59:01.098Z,0.00
2018-12-27T15:01:29.521Z,-0.10
2018-12-27T15:03:57.966Z,-0.20
2018-12-27T15:06:26.386Z,-0.20
2018-12-27T15:08:54.838Z,-0.40
2018-12-27T15:11:23.290Z,-0.40
2018-12-27T15:13:51.746Z,-0.40
2018-12-27T15:16:20.162Z,-0.50
2018-12-27T15:18:48.619Z,-0.50
2018-12-27T15:21:17.048Z,-0.50
2018-12-27T15:23:45.510Z,-0.50
2018-12-27T15:26:16.733Z,-0.60
2018-12-27T15:28:45.190Z,-0.60
2018-12-27T15:31:13.613Z,-0.60
2018-12-27T15:33:42.074Z,-0.70
2018-12-27T15:36:10.550Z,-0.70
2018-12-27T15:38:38.985Z,-0.70
2018-12-27T15:41:07.452Z,-0.80
2018-12-27T15:43:35.874Z,-0.80
2018-12-27T15:46:04.322Z,-0.80
2018-12-27T15:48:32.802Z,-0.80
2018-12-27T15:51:01.252Z,-0.80
2018-12-27T15:53:29.682Z,-0.80
2018-12-27T15:55:58.125Z,-0.90
2018-12-27T15:58:26.551Z,-0.90
2018-12-27T16:00:55.027Z,-0.90
2018-12-27T16:03:23.461Z,-0.90
2018-12-27T16:05:51.930Z,-0.90
2018-12-27T16:08:20.350Z,-1.00
2018-12-27T16:10:48.812Z,-1.00
2018-12-27T16:13:17.241Z,-1.00
2018-12-27T16:15:45.738Z,-1.00
2018-12-27T16:18:14.154Z,-1.00
2018-12-27T16:20:42.613Z,-1.00
2018-12-27T16:23:11.037Z,-1.10
2018-12-27T16:25:39.577Z,-1.10
2018-12-27T16:28:08.043Z,-1.10
2018-12-27T16:30:36.506Z,-1.10
2018-12-27T16:33:04.966Z,-1.10
2018-12-27T16:35:33.407Z,-1.20
2018-12-27T16:38:01.987Z,-1.20
2018-12-27T16:40:30.418Z,-1.20
2018-12-27T16:42:58.884Z,-1.20
2018-12-27T16:45:27.328Z,-1.20
2018-12-27T16:47:55.855Z,-1.20
2018-12-27T16:50:25.685Z,-1.20
2018-12-27T16:52:54.141Z,-1.20
2018-12-27T16:55:22.596Z,-1.20
2018-12-27T16:57:51.052Z,-1.20
2018-12-27T17:00:19.506Z,-1.20
2018-12-27T17:02:47.947Z,-1.20
2018-12-27T17:05:16.373Z,-1.20
2018-12-27T17:07:44.806Z,-1.20
2018-12-27T17:10:13.337Z,-1.30
2018-12-27T17:12:41.759Z,-1.30
2018-12-27T17:15:10.242Z,-1.30
2018-12-27T17:17:38.794Z,-1.40
2018-12-27T17:20:07.269Z,-1.40
2018-12-27T17:22:35.708Z,-1.40
2018-12-27T17:25:04.242Z,-1.40
2018-12-27T17:27:32.658Z,-1.40
2018-12-27T17:30:01.164Z,-1.40
2018-12-27T17:32:29.579Z,-1.40
2018-12-27T17:34:58.039Z,-1.40
2018-12-27T17:37:26.572Z,-1.40
2018-12-27T17:39:55.007Z,-1.40
2018-12-27T17:42:23.499Z,-1.40
2018-12-27T17:44:51.959Z,-1.40
2018-12-27T17:47:20.384Z,-1.50
2018-12-27T17:49:48.830Z,-1.40
2018-12-27T17:52:17.263Z,-1.50
2018-12-27T17:54:45.804Z,-1.50
2018-12-27T17:57:14.239Z,-1.50
2018-12-27T17:59:42.723Z,-1.50
2018-12-27T18:02:11.173Z,-1.50
2018-12-27T18:04:39.654Z,-1.50
2018-12-27T18:07:08.105Z,-1.50
2018-12-27T18:09:36.548Z,-1.50
2018-12-27T18:12:05.106Z,-1.50
2018-12-27T18:14:33.532Z,-1.60
2018-12-27T18:17:01.983Z,-1.60
2018-12-27T18:19:33.599Z,-1.70
2018-12-27T18:22:02.070Z,-1.70
2018-12-27T18:24:30.525Z,-1.70
2018-12-27T18:26:58.986Z,-1.70
2018-12-27T18:29:27.426Z,-1.80
2018-12-27T18:31:55.894Z,-1.80
2018-12-27T18:34:24.321Z,-1.90
2018-12-27T18:36:52.786Z,-1.90
2018-12-27T18:39:21.203Z,-1.90
2018-12-27T18:41:49.639Z,-1.90
2018-12-27T18:44:18.088Z,-1.80
2018-12-27T18:46:46.640Z,-1.90
2018-12-27T18:49:20.589Z,-1.90
2018-12-27T18:51:45.289Z,-1.80
2018-12-27T18:54:13.715Z,-1.80
2018-12-27T18:56:42.146Z,-1.90
2018-12-27T18:59:10.595Z,-2.00
2018-12-27T19:01:39.049Z,-2.00
2018-12-27T19:04:07.514Z,-2.00
2018-12-27T19:06:35.928Z,-1.90
2018-12-27T19:09:06.489Z,-2.00
2018-12-27T19:12:11.323Z,-2.00
2018-12-27T19:14:39.906Z,-2.10
2018-12-27T19:17:11.499Z,-2.10
2018-12-27T19:19:41.781Z,-2.10
2018-12-27T19:22:12.007Z,-2.10
2018-12-27T19:24:40.465Z,-2.20
2018-12-27T19:27:08.921Z,-2.20
2018-12-27T19:29:37.358Z,-2.20
2018-12-27T19:32:05.800Z,-2.20
2018-12-27T19:34:34.275Z,-2.10
2018-12-27T19:37:02.703Z,-2.10
2018-12-27T19:39:31.179Z,-2.10
2018-12-27T19:41:59.609Z,-2.00
2018-12-27T19:44:28.034Z,-2.10
2018-12-27T19:46:56.482Z,-2.00
2018-12-27T19:49:24.943Z,-2.10
2018-12-27T19:51:53.385Z,-2.10
2018-12-27T19:54:21.809Z,-2.10
2018-12-27T19:56:50.265Z,-2.10
2018-12-27T19:59:18.767Z,-2.10
2018-12-27T20:01:47.210Z,-2.10
2018-12-27T20:04:15.638Z,-2.10
2018-12-27T20:06:44.096Z,-2.10
2018-12-27T20:09:12.536Z,-2.10
2018-12-27T20:11:40.987Z,-2.10
2018-12-27T20:14:09.419Z,-2.20
2018-12-27T20:16:37.882Z,-2.20
2018-12-27T20:19:06.316Z,-2.20
2018-12-27T20:21:34.771Z,-2.20
2018-12-27T20:24:03.321Z,-2.20
2018-12-27T20:26:31.815Z,-2.20
2018-12-27T20:29:00.252Z,-2.20
2018-12-27T20:31:28.760Z,-2.20
2018-12-27T20:33:57.244Z,-2.20
2018-12-27T20:36:25.681Z,-2.30
2018-12-27T20:38:54.133Z,-2.30
2018-12-27T20:41:22.558Z,-2.20
2018-12-27T20:43:51.018Z,-2.30
2018-12-27T20:46:19.443Z,-2.30
2018-12-27T20:48:47.933Z,-2.20
2018-12-27T20:51:16.417Z,-2.30
2018-12-27T20:53:44.867Z,-2.30
2018-12-27T20:56:13.322Z,-2.30
2018-12-27T20:58:41.763Z,-2.30
2018-12-27T21:01:10.216Z,-2.30
2018-12-27T21:03:38.669Z,-2.40
2018-12-27T21:06:07.112Z,-2.40
2018-12-27T21:08:35.573Z,-2.40
2018-12-27T21:11:04.090Z,-2.40
2018-12-27T21:13:32.551Z,-2.40
2018-12-27T21:16:01.001Z,-2.30
2018-12-27T21:18:29.471Z,-2.30
2018-12-27T21:20:57.929Z,-2.30
2018-12-27T21:23:26.386Z,-2.30
2018-12-27T21:25:54.834Z,-2.40
2018-12-27T21:28:23.265Z,-2.30
2018-12-27T21:30:51.879Z,-2.40
2018-12-27T21:33:20.321Z,-2.40
2018-12-27T21:35:48.770Z,-2.50
2018-12-27T21:38:21.323Z,-2.50
2018-12-27T21:40:47.401Z,-2.50
2018-12-27T21:43:15.832Z,-2.50
2018-12-27T21:45:44.283Z,-2.50
2018-12-27T21:48:12.722Z,-2.60
2018-12-27T21:50:41.179Z,-2.60
2018-12-27T21:53:09.594Z,-2.50
2018-12-27T21:55:38.034Z,-2.50
2018-12-27T21:58:06.509Z,-2.50
2018-12-27T22:00:34.978Z,-2.50
2018-12-27T22:03:03.441Z,-2.50
2018-12-27T22:05:31.893Z,-2.50
2018-12-27T22:08:00.353Z,-2.50
2018-12-27T22:10:28.767Z,-2.50
2018-12-27T22:12:57.230Z,-2.60
2018-12-27T22:15:25.658Z,-2.50
2018-12-27T22:17:54.130Z,-2.60
2018-12-27T22:20:22.567Z,-2.60
2018-12-27T22:22:51.038Z,-2.60
2018-12-27T22:25:19.484Z,-2.60
2018-12-27T22:27:47.958Z,-2.60
2018-12-27T22:30:16.373Z,-2.60
2018-12-27T22:32:44.827Z,-2.60
2018-12-27T22:35:13.328Z,-2.60
2018-12-27T22:37:41.777Z,-2.70
2018-12-27T22:40:10.299Z,-2.70
2018-12-27T22:42:38.717Z,-2.80
2018-12-27T22:45:07.387Z,-2.80
2018-12-27T22:47:37.349Z,-2.70
2018-12-27T22:50:06.368Z,-2.70
2018-12-27T22:52:34.856Z,-2.70
2018-12-27T22:55:03.487Z,-2.80
2018-12-27T22:57:31.911Z,-2.80
2018-12-27T23:00:00.362Z,-2.80
2018-12-27T23:02:28.842Z,-2.80
2018-12-27T23:04:57.307Z,-2.90
2018-12-27T23:07:25.754Z,-2.90
2018-12-27T23:09:54.295Z,-2.90
2018-12-27T23:12:22.735Z,-2.90
2018-12-27T23:14:51.413Z,-3.00
2018-12-27T23:17:20.066Z,-3.00
2018-12-27T23:19:48.523Z,-3.10
2018-12-27T23:22:16.993Z,-3.00
2018-12-27T23:24:45.435Z,-3.10
2018-12-27T23:27:13.998Z,-3.10
2018-12-27T23:29:42.422Z,-3.10
2018-12-27T23:32:10.870Z,-3.10
2018-12-27T23:34:39.315Z,-3.10
2018-12-27T23:37:07.949Z,-3.10
2018-12-27T23:39:36.370Z,-3.20
2018-12-27T23:42:04.830Z,-3.30
2018-12-27T23:44:33.259Z,-3.20
2018-12-27T23:47:01.698Z,-3.20
2018-12-27T23:49:30.146Z,-3.40
2018-12-27T23:51:58.577Z,-3.30
2018-12-27T23:54:27.020Z,-3.30
2018-12-27T23:56:55.475Z,-3.40
2018-12-27T23:59:23.900Z,-3.40
